createdAt,value
2018-11-14T00:01:28.040Z,3.52
2018-11-14T00:03:59.101Z,4.62
2018-11-14T00:06:31.399Z,3.10
2018-11-14T00:09:02.540Z,4.40
2018-11-14T00:11:34.200Z,4.22
2018-11-14T00:14:05.199Z,3.55
2018-11-14T00:16:37.279Z,3.30
2018-11-14T00:19:09.402Z,2.95
2018-11-14T00:21:40.498Z,4.37
2018-11-14T00:24:12.839Z,4.92
2018-11-14T00:26:44.547Z,6.72
2018-11-14T00:29:17.344Z,4.35
2018-11-14T00:31:49.680Z,5.10
2018-11-14T00:34:20.907Z,6.70
2018-11-14T00:36:53.019Z,7.20
2018-11-14T00:39:24.659Z,7.20
2018-11-14T00:41:56.139Z,6.75
2018-11-14T00:44:28.299Z,7.15
2018-11-14T00:47:00.000Z,6.97
2018-11-14T00:49:31.079Z,5.92
2018-11-14T00:52:02.898Z,4.83
2018-11-14T00:54:34.938Z,4.80
2018-11-14T00:57:05.958Z,5.35
2018-11-14T00:59:37.280Z,6.00
2018-11-14T01:02:08.138Z,4.55
2018-11-14T01:04:39.400Z,4.97
2018-11-14T01:07:10.979Z,6.00
2018-11-14T01:09:43.060Z,5.78
2018-11-14T01:12:13.859Z,5.80
2018-11-14T01:14:45.379Z,7.42
2018-11-14T01:17:17.444Z,7.80
2018-11-14T01:19:48.799Z,5.28
2018-11-14T01:22:20.759Z,3.87
2018-11-14T01:24:52.219Z,3.70
2018-11-14T01:27:23.869Z,3.25
2018-11-14T01:29:54.998Z,4.00
2018-11-14T01:32:26.520Z,3.50
2018-11-14T01:34:57.919Z,3.83
2018-11-14T01:37:29.125Z,3.77
2018-11-14T01:40:00.961Z,3.90
2018-11-14T01:42:31.463Z,3.40
2018-11-14T01:45:08.164Z,3.60
2018-11-14T01:47:39.501Z,3.80
2018-11-14T01:50:11.644Z,5.00
2018-11-14T01:52:42.452Z,5.08
2018-11-14T01:55:15.013Z,4.85
2018-11-14T01:57:45.897Z,5.45
2018-11-14T02:00:18.658Z,6.20
2018-11-14T02:02:49.638Z,5.28
2018-11-14T02:05:21.918Z,7.15
2018-11-14T02:07:53.318Z,6.25
2018-11-14T02:10:24.858Z,6.70
2018-11-14T02:12:55.898Z,7.37
2018-11-14T02:15:27.818Z,6.72
2018-11-14T02:17:59.178Z,6.35
2018-11-14T02:20:31.318Z,6.00
2018-11-14T02:23:02.498Z,6.22
2018-11-14T02:25:34.459Z,6.70
2018-11-14T02:28:04.920Z,6.85
2018-11-14T02:30:35.918Z,7.70
2018-11-14T02:33:07.817Z,8.20
2018-11-14T02:35:39.105Z,7.90
2018-11-14T02:38:09.777Z,7.50
2018-11-14T02:40:42.199Z,7.80
2018-11-14T02:43:13.099Z,7.65
2018-11-14T02:45:44.358Z,6.67
2018-11-14T02:48:15.677Z,6.62
2018-11-14T02:50:46.858Z,6.55
2018-11-14T02:53:18.698Z,8.13
2018-11-14T02:55:57.938Z,6.17
2018-11-14T02:58:28.798Z,6.08
2018-11-14T03:01:00.078Z,6.22
2018-11-14T03:03:31.658Z,5.70
2018-11-14T03:06:03.398Z,5.87
2018-11-14T03:08:34.712Z,6.05
2018-11-14T03:11:06.757Z,5.83
2018-11-14T03:13:38.380Z,6.62
2018-11-14T03:16:10.197Z,5.80
2018-11-14T03:18:41.721Z,6.00
2018-11-14T03:21:12.838Z,6.08
2018-11-14T03:23:44.358Z,5.50
2018-11-14T03:26:15.898Z,5.83
2018-11-14T03:28:47.778Z,7.58
2018-11-14T03:31:18.498Z,7.92
2018-11-14T03:33:50.737Z,7.70
2018-11-14T03:36:23.318Z,7.78
2018-11-14T03:38:54.440Z,8.98
2018-11-14T03:41:25.477Z,11.48
2018-11-14T03:43:57.219Z,8.55
2018-11-14T03:46:29.078Z,8.53
2018-11-14T03:48:59.978Z,9.25
2018-11-14T03:51:31.157Z,9.28
2018-11-14T03:54:02.698Z,8.70
2018-11-14T03:56:33.418Z,9.03
2018-11-14T03:59:05.478Z,9.80
2018-11-14T04:01:36.758Z,9.00
2018-11-14T04:04:08.597Z,9.33
2018-11-14T04:06:40.318Z,14.10
2018-11-14T04:09:13.888Z,15.05
2018-11-14T04:11:45.558Z,18.95
2018-11-14T04:14:16.938Z,16.93
2018-11-14T04:16:48.659Z,19.87
2018-11-14T04:19:20.298Z,19.90
2018-11-14T04:21:51.358Z,19.37
2018-11-14T04:24:24.097Z,20.90
2018-11-14T04:26:55.658Z,21.00
2018-11-14T04:29:27.217Z,18.90
2018-11-14T04:31:59.117Z,21.37
2018-11-14T04:34:30.838Z,25.27
2018-11-14T04:37:02.603Z,21.00
2018-11-14T04:39:33.779Z,21.48
2018-11-14T04:42:04.801Z,22.30
2018-11-14T04:44:35.918Z,22.35
2018-11-14T04:47:08.669Z,22.45
2018-11-14T04:49:41.520Z,21.68
2018-11-14T04:52:14.240Z,20.40
2018-11-14T04:54:45.921Z,18.98
2018-11-14T04:57:17.260Z,18.32
2018-11-14T04:59:48.021Z,24.90
2018-11-14T05:02:19.735Z,22.82
2018-11-14T05:04:51.500Z,28.25
2018-11-14T05:07:24.021Z,21.87
2018-11-14T05:09:56.161Z,21.97
2018-11-14T05:12:27.901Z,22.65
2018-11-14T05:15:00.401Z,20.60
2018-11-14T05:17:33.541Z,20.65
2018-11-14T05:20:05.241Z,21.02
2018-11-14T05:22:37.484Z,21.90
2018-11-14T05:25:08.952Z,21.50
2018-11-14T05:27:41.241Z,19.48
2018-11-14T05:30:15.361Z,20.62
2018-11-14T05:32:48.501Z,20.68
2018-11-14T05:35:20.404Z,20.68
2018-11-14T05:37:52.160Z,26.95
2018-11-14T05:40:25.021Z,21.27
2018-11-14T05:42:57.241Z,20.75
2018-11-14T05:45:29.841Z,16.90
2018-11-14T05:48:02.261Z,17.30
2018-11-14T05:50:34.161Z,19.57
2018-11-14T05:53:05.426Z,19.70
2018-11-14T05:55:37.482Z,20.15
2018-11-14T05:58:09.220Z,19.42
2018-11-14T06:00:40.820Z,25.05
2018-11-14T06:03:12.860Z,19.02
2018-11-14T06:05:45.000Z,22.50
2018-11-14T06:08:16.540Z,19.65
2018-11-14T06:10:47.780Z,20.12
2018-11-14T06:13:19.839Z,19.25
2018-11-14T06:15:51.498Z,18.45
2018-11-14T06:18:23.538Z,21.50
2018-11-14T06:20:55.597Z,23.60
2018-11-14T06:23:28.090Z,22.75
2018-11-14T06:25:59.921Z,21.50
2018-11-14T06:28:31.998Z,22.48
2018-11-14T06:31:04.258Z,22.40
2018-11-14T06:33:36.482Z,24.12
2018-11-14T06:36:08.418Z,21.85
2018-11-14T06:38:40.500Z,22.42
2018-11-14T06:41:13.078Z,23.27
2018-11-14T06:43:45.438Z,20.62
2018-11-14T06:46:17.958Z,19.32
2018-11-14T06:48:49.598Z,20.75
2018-11-14T06:51:21.040Z,21.37
2018-11-14T06:53:53.058Z,18.32
2018-11-14T06:56:25.538Z,22.37
2018-11-14T06:58:56.863Z,11.35
2018-11-14T07:01:29.858Z,15.48
2018-11-14T07:04:01.759Z,13.35
2018-11-14T07:06:33.439Z,11.35
2018-11-14T07:09:06.538Z,11.40
2018-11-14T07:11:38.158Z,9.83
2018-11-14T07:14:10.258Z,12.60
2018-11-14T07:16:42.077Z,15.38
2018-11-14T07:19:14.058Z,11.30
2018-11-14T07:21:46.099Z,16.85
2018-11-14T07:24:19.419Z,13.28
2018-11-14T07:26:51.879Z,11.97
2018-11-14T07:29:23.358Z,12.13
2018-11-14T07:31:56.269Z,12.40
2018-11-14T07:34:28.938Z,11.57
2018-11-14T07:37:01.078Z,10.10
2018-11-14T07:39:33.459Z,11.38
2018-11-14T07:42:04.918Z,10.35
2018-11-14T07:44:37.138Z,15.13
2018-11-14T07:47:08.840Z,11.15
2018-11-14T07:49:40.860Z,7.05
2018-11-14T07:52:12.538Z,10.13
2018-11-14T07:54:44.580Z,9.68
2018-11-14T07:57:16.544Z,7.35
2018-11-14T07:59:48.619Z,10.23
2018-11-14T08:02:20.472Z,8.58
2018-11-14T08:04:52.738Z,19.45
2018-11-14T08:07:24.239Z,14.10
2018-11-14T08:09:56.838Z,13.08
2018-11-14T08:12:28.739Z,11.78
2018-11-14T08:15:01.123Z,7.70
2018-11-14T08:17:32.238Z,9.83
2018-11-14T08:20:04.359Z,10.70
2018-11-14T08:22:36.501Z,14.05
2018-11-14T08:25:08.367Z,13.53
2018-11-14T08:27:41.331Z,13.65
2018-11-14T08:30:13.451Z,13.53
2018-11-14T08:32:46.052Z,14.73
2018-11-14T08:35:17.871Z,11.45
2018-11-14T08:37:50.051Z,11.22
2018-11-14T08:40:22.192Z,15.23
2018-11-14T08:42:54.231Z,11.60
2018-11-14T08:45:25.574Z,10.60
2018-11-14T08:47:57.160Z,7.92
2018-11-14T08:50:29.026Z,13.20
2018-11-14T08:53:00.533Z,10.25
2018-11-14T08:55:31.533Z,6.83
2018-11-14T08:58:03.770Z,11.53
2018-11-14T09:00:36.134Z,12.03
2018-11-14T09:03:10.220Z,9.73
2018-11-14T09:05:42.556Z,9.33
2018-11-14T09:08:14.943Z,10.75
2018-11-14T09:10:47.037Z,11.75
2018-11-14T09:13:19.533Z,11.63
2018-11-14T09:15:51.020Z,12.33
2018-11-14T09:18:23.645Z,13.00
2018-11-14T09:20:55.193Z,13.05
2018-11-14T09:23:27.554Z,17.55
2018-11-14T09:25:58.914Z,11.70
2018-11-14T09:28:31.774Z,14.23
2018-11-14T09:31:04.247Z,13.83
2018-11-14T09:33:36.347Z,14.35
2018-11-14T09:36:08.106Z,13.53
2018-11-14T09:38:39.428Z,16.35
2018-11-14T09:41:11.090Z,27.58
2018-11-14T09:43:43.212Z,28.90
2018-11-14T09:46:15.326Z,12.20
2018-11-14T09:48:47.046Z,14.83
2018-11-14T09:51:19.347Z,12.88
2018-11-14T09:53:50.389Z,16.57
2018-11-14T09:56:22.343Z,12.90
2018-11-14T09:58:54.263Z,21.37
2018-11-14T10:01:26.454Z,12.33
2018-11-14T10:03:58.413Z,12.80
2018-11-14T10:06:30.342Z,11.57
2018-11-14T10:09:01.917Z,11.85
2018-11-14T10:11:33.963Z,12.20
2018-11-14T10:14:05.657Z,13.35
2018-11-14T10:16:38.095Z,12.43
2018-11-14T10:19:11.113Z,13.05
2018-11-14T10:21:43.166Z,12.35
2018-11-14T10:24:15.553Z,18.80
2018-11-14T10:26:47.560Z,18.27
2018-11-14T10:29:19.172Z,18.25
2018-11-14T10:31:50.775Z,12.40
2018-11-14T10:34:22.858Z,14.23
2018-11-14T10:36:54.173Z,16.23
2018-11-14T10:39:25.673Z,14.78
2018-11-14T10:41:57.475Z,15.50
2018-11-14T10:44:29.875Z,15.03
2018-11-14T10:47:01.792Z,16.57
2018-11-14T10:49:33.731Z,14.33
2018-11-14T10:52:05.601Z,15.28
2018-11-14T10:54:37.162Z,16.40
2018-11-14T10:57:09.303Z,14.45
2018-11-14T10:59:41.183Z,15.35
2018-11-14T11:02:17.203Z,14.58
2018-11-14T11:04:53.334Z,19.12
2018-11-14T11:07:29.315Z,19.45
2018-11-14T11:10:10.403Z,14.20
2018-11-14T11:12:47.579Z,14.80
2018-11-14T11:15:22.084Z,15.58
2018-11-14T11:17:58.382Z,14.13
2018-11-14T11:20:30.579Z,14.25
2018-11-14T11:23:02.500Z,19.20
2018-11-14T11:25:35.041Z,14.70
2018-11-14T11:28:07.540Z,18.30
2018-11-14T11:30:39.061Z,15.35
2018-11-14T11:33:10.759Z,14.85
2018-11-14T11:35:41.920Z,19.42
2018-11-14T11:38:13.619Z,21.05
2018-11-14T11:40:45.427Z,17.45
2018-11-14T11:43:17.599Z,16.27
2018-11-14T11:45:49.803Z,18.82
2018-11-14T11:48:20.959Z,17.30
2018-11-14T11:50:52.501Z,16.12
2018-11-14T11:53:24.464Z,16.57
2018-11-14T11:55:55.862Z,16.90
2018-11-14T11:58:28.127Z,16.95
2018-11-14T12:00:59.223Z,24.52
2018-11-14T12:03:31.299Z,16.70
2018-11-14T12:06:03.420Z,18.85
2018-11-14T12:08:33.999Z,17.80
2018-11-14T12:11:07.421Z,18.55
2018-11-14T12:13:39.715Z,19.12
2018-11-14T12:16:11.241Z,17.55
2018-11-14T12:18:42.818Z,27.20
2018-11-14T12:21:14.939Z,17.82
2018-11-14T12:23:46.708Z,17.60
2018-11-14T12:26:19.257Z,17.10
2018-11-14T12:28:51.116Z,20.52
2018-11-14T12:31:23.489Z,19.05
2018-11-14T12:33:56.057Z,20.97
2018-11-14T12:36:27.617Z,22.50
2018-11-14T12:38:59.459Z,20.88
2018-11-14T12:41:31.477Z,22.05
2018-11-14T12:44:03.017Z,19.65
2018-11-14T12:46:35.138Z,20.00
2018-11-14T12:49:07.599Z,21.68
2018-11-14T12:51:39.419Z,18.50
2018-11-14T12:54:12.096Z,19.12
2018-11-14T12:56:44.637Z,17.35
2018-11-14T12:59:16.278Z,25.37
2018-11-14T13:01:48.466Z,18.20
2018-11-14T13:04:21.289Z,19.82
2018-11-14T13:06:53.124Z,18.35
2018-11-14T13:09:24.685Z,18.37
2018-11-14T13:11:57.025Z,19.00
2018-11-14T13:14:28.964Z,21.77
2018-11-14T13:17:00.584Z,19.75
2018-11-14T13:19:32.966Z,18.42
2018-11-14T13:22:04.525Z,20.00
2018-11-14T13:24:37.904Z,15.93
2018-11-14T13:27:09.384Z,16.17
2018-11-14T13:29:41.524Z,17.62
2018-11-14T13:32:13.264Z,51.83
2018-11-14T13:34:45.824Z,30.32
2018-11-14T13:37:17.864Z,21.07
2018-11-14T13:39:49.965Z,18.40
2018-11-14T13:42:23.267Z,19.67
2018-11-14T13:44:55.218Z,15.95
2018-11-14T13:47:27.366Z,16.30
2018-11-14T13:50:00.181Z,15.55
2018-11-14T13:52:32.810Z,21.52
2018-11-14T13:55:04.689Z,18.40
2018-11-14T13:57:36.227Z,19.05
2018-11-14T14:00:09.120Z,21.97
2018-11-14T14:02:40.663Z,19.27
2018-11-14T14:05:14.402Z,17.37
2018-11-14T14:07:45.959Z,22.95
2018-11-14T14:10:18.780Z,19.82
2018-11-14T14:12:52.259Z,18.67
2018-11-14T14:15:25.398Z,17.20
2018-11-14T14:17:56.905Z,18.30
2018-11-14T14:20:29.883Z,18.65
2018-11-14T14:23:01.256Z,26.37
2018-11-14T14:25:34.114Z,18.90
2018-11-14T14:28:05.753Z,20.02
2018-11-14T14:30:38.789Z,19.52
2018-11-14T14:33:09.732Z,23.92
2018-11-14T14:35:42.113Z,19.70
2018-11-14T14:38:13.920Z,20.37
2018-11-14T14:40:47.533Z,21.73
2018-11-14T14:43:19.752Z,20.25
2018-11-14T14:45:52.432Z,19.35
2018-11-14T14:48:24.000Z,22.95
2018-11-14T14:50:56.253Z,17.75
2018-11-14T14:53:28.532Z,21.35
2018-11-14T14:56:00.393Z,17.95
2018-11-14T14:58:32.613Z,19.98
2018-11-14T15:01:04.632Z,20.62
2018-11-14T15:03:37.145Z,21.25
2018-11-14T15:06:09.016Z,20.77
2018-11-14T15:08:40.932Z,22.87
2018-11-14T15:11:12.693Z,19.25
2018-11-14T15:13:43.978Z,18.00
2018-11-14T15:16:15.570Z,19.42
2018-11-14T15:18:46.157Z,17.65
2018-11-14T15:21:17.649Z,19.45
2018-11-14T15:23:48.910Z,19.70
2018-11-14T15:26:21.108Z,21.77
2018-11-14T15:28:52.645Z,23.07
2018-11-14T15:31:24.868Z,20.88
2018-11-14T15:33:56.128Z,27.40
2018-11-14T15:36:29.148Z,20.08
2018-11-14T15:39:02.208Z,21.85
2018-11-14T15:41:34.746Z,19.55
2018-11-14T15:44:06.751Z,20.20
2018-11-14T15:46:38.687Z,20.20
2018-11-14T15:49:12.228Z,20.10
2018-11-14T15:51:43.374Z,20.35
2018-11-14T15:54:15.248Z,18.85
2018-11-14T15:56:45.948Z,24.82
2018-11-14T15:59:18.367Z,19.60
2018-11-14T16:01:50.567Z,20.60
2018-11-14T16:04:23.028Z,25.80
2018-11-14T16:06:54.727Z,28.45
2018-11-14T16:09:26.740Z,30.70
2018-11-14T16:11:58.900Z,19.82
2018-11-14T16:14:32.083Z,21.87
2018-11-14T16:17:03.700Z,21.93
2018-11-14T16:19:36.337Z,21.90
2018-11-14T16:22:08.345Z,22.20
2018-11-14T16:24:39.875Z,20.48
2018-11-14T16:27:12.323Z,23.92
2018-11-14T16:29:43.419Z,20.82
2018-11-14T16:32:15.757Z,22.55
2018-11-14T16:34:47.884Z,21.05
2018-11-14T16:37:20.373Z,24.92
2018-11-14T16:39:52.643Z,26.05
2018-11-14T16:42:24.447Z,22.50
2018-11-14T16:44:56.586Z,22.37
2018-11-14T16:47:28.669Z,26.97
2018-11-14T16:50:00.183Z,24.25
2018-11-14T16:52:32.307Z,24.60
2018-11-14T16:55:04.283Z,24.63
2018-11-14T16:57:34.903Z,24.27
2018-11-14T17:00:08.664Z,25.90
2018-11-14T17:02:41.044Z,23.47
2018-11-14T17:05:13.744Z,25.62
2018-11-14T17:07:45.704Z,26.25
2018-11-14T17:10:21.011Z,25.70
2018-11-14T17:12:55.043Z,27.67
2018-11-14T17:15:28.144Z,27.45
2018-11-14T17:18:00.104Z,25.48
2018-11-14T17:20:33.103Z,28.62
2018-11-14T17:23:05.424Z,28.07
2018-11-14T17:25:38.594Z,27.42
2018-11-14T17:28:09.904Z,28.57
2018-11-14T17:30:42.084Z,27.42
2018-11-14T17:33:14.183Z,29.18
2018-11-14T17:35:47.365Z,26.57
2018-11-14T17:38:19.764Z,29.15
2018-11-14T17:40:52.423Z,27.48
2018-11-14T17:43:24.684Z,24.00
2018-11-14T17:45:57.263Z,24.18
2018-11-14T17:48:29.063Z,26.87
2018-11-14T17:51:00.943Z,24.45
2018-11-14T17:53:32.702Z,31.27
2018-11-14T17:56:04.484Z,24.27
2018-11-14T17:58:36.043Z,29.02
2018-11-14T18:01:07.546Z,31.07
2018-11-14T18:03:38.884Z,29.63
2018-11-14T18:06:11.023Z,57.03
2018-11-14T18:08:42.403Z,30.88
2018-11-14T18:11:14.802Z,30.37
2018-11-14T18:13:46.871Z,26.95
2018-11-14T18:16:19.386Z,28.32
2018-11-14T18:18:51.044Z,28.73
2018-11-14T18:21:23.242Z,28.70
2018-11-14T18:23:54.904Z,25.82
2018-11-14T18:26:27.704Z,23.67
2018-11-14T18:29:00.243Z,28.35
2018-11-14T18:31:31.763Z,25.43
2018-11-14T18:34:04.085Z,22.95
2018-11-14T18:36:36.904Z,21.70
2018-11-14T18:39:12.602Z,19.35
2018-11-14T18:41:45.363Z,18.30
2018-11-14T18:44:17.144Z,22.20
2018-11-14T18:46:49.044Z,19.17
2018-11-14T18:49:20.483Z,22.22
2018-11-14T18:51:53.068Z,18.60
2018-11-14T18:54:24.964Z,15.55
2018-11-14T18:56:57.443Z,19.52
2018-11-14T18:59:29.283Z,18.98
2018-11-14T19:02:01.523Z,17.45
2018-11-14T19:04:33.702Z,17.23
2018-11-14T19:07:05.143Z,21.07
2018-11-14T19:09:37.083Z,19.10
2018-11-14T19:12:09.734Z,20.85
2018-11-14T19:14:41.103Z,21.50
2018-11-14T19:17:13.194Z,22.82
2018-11-14T19:19:45.103Z,21.12
2018-11-14T19:22:17.643Z,20.60
2018-11-14T19:24:49.090Z,22.00
2018-11-14T19:27:21.604Z,21.30
2018-11-14T19:29:53.624Z,20.50
2018-11-14T19:32:25.423Z,22.10
2018-11-14T19:34:57.004Z,22.37
2018-11-14T19:37:28.884Z,23.47
2018-11-14T19:40:01.123Z,20.97
2018-11-14T19:42:32.963Z,20.72
2018-11-14T19:45:04.722Z,22.52
2018-11-14T19:47:36.623Z,20.52
2018-11-14T19:50:10.065Z,21.42
2018-11-14T19:52:42.203Z,22.48
2018-11-14T19:55:15.747Z,24.05
2018-11-14T19:57:48.348Z,22.70
2018-11-14T20:00:24.666Z,23.65
2018-11-14T20:02:57.405Z,21.65
2018-11-14T20:05:29.284Z,21.15
2018-11-14T20:08:01.422Z,23.10
2018-11-14T20:10:33.828Z,22.13
2018-11-14T20:13:05.464Z,21.93
2018-11-14T20:15:38.984Z,23.95
2018-11-14T20:18:11.024Z,23.75
2018-11-14T20:20:42.603Z,24.07
2018-11-14T20:23:14.385Z,24.40
2018-11-14T20:25:46.404Z,23.85
2018-11-14T20:28:18.043Z,22.85
2018-11-14T20:30:49.823Z,22.42
2018-11-14T20:33:21.804Z,22.10
2018-11-14T20:35:53.964Z,20.88
2018-11-14T20:38:26.285Z,22.85
2018-11-14T20:40:57.744Z,22.62
2018-11-14T20:43:30.070Z,20.57
2018-11-14T20:46:01.544Z,26.65
2018-11-14T20:48:33.844Z,22.65
2018-11-14T20:51:05.925Z,21.35
2018-11-14T20:53:38.944Z,22.10
2018-11-14T20:56:11.054Z,23.05
2018-11-14T20:58:43.303Z,20.05
2018-11-14T21:01:15.645Z,24.27
2018-11-14T21:03:48.013Z,18.57
2018-11-14T21:06:20.024Z,17.30
2018-11-14T21:08:51.464Z,16.40
2018-11-14T21:11:23.143Z,17.10
2018-11-14T21:13:56.303Z,18.12
2018-11-14T21:16:28.584Z,17.98
2018-11-14T21:19:00.184Z,17.62
2018-11-14T21:21:32.369Z,16.40
2018-11-14T21:24:04.573Z,19.12
2018-11-14T21:26:38.204Z,18.45
2018-11-14T21:29:09.743Z,19.62
2018-11-14T21:31:41.463Z,18.70
2018-11-14T21:34:12.844Z,17.75
2018-11-14T21:36:44.844Z,18.23
2018-11-14T21:39:16.804Z,19.45
2018-11-14T21:41:49.224Z,17.45
2018-11-14T21:44:21.103Z,18.95
2018-11-14T21:46:52.966Z,16.37
2018-11-14T21:49:28.203Z,17.48
2018-11-14T21:52:01.203Z,17.48
2018-11-14T21:54:32.963Z,17.00
2018-11-14T21:57:04.783Z,15.80
2018-11-14T21:59:36.311Z,16.07
2018-11-14T22:02:08.203Z,15.53
2018-11-14T22:04:40.344Z,15.65
2018-11-14T22:07:12.523Z,16.32
2018-11-14T22:09:44.204Z,15.10
2018-11-14T22:12:16.143Z,15.63
2018-11-14T22:14:48.603Z,15.38
2018-11-14T22:17:20.843Z,15.28
2018-11-14T22:19:52.664Z,14.83
2018-11-14T22:22:24.723Z,15.85
2018-11-14T22:24:57.404Z,17.95
2018-11-14T22:27:29.103Z,17.75
2018-11-14T22:30:01.109Z,15.80
2018-11-14T22:32:33.423Z,17.12
2018-11-14T22:35:05.478Z,15.20
2018-11-14T22:37:37.184Z,13.80
2018-11-14T22:40:10.109Z,15.48
2018-11-14T22:42:41.924Z,16.42
2018-11-14T22:45:15.303Z,16.73
2018-11-14T22:47:47.383Z,16.85
2018-11-14T22:50:20.083Z,16.95
2018-11-14T22:52:53.269Z,17.35
2018-11-14T22:55:25.903Z,16.12
2018-11-14T22:57:57.783Z,18.35
2018-11-14T23:00:33.763Z,18.00
2018-11-14T23:03:05.603Z,18.45
2018-11-14T23:05:37.343Z,17.02
2018-11-14T23:08:08.626Z,19.30
2018-11-14T23:10:40.102Z,16.32
2018-11-14T23:13:12.822Z,16.30
2018-11-14T23:15:45.463Z,16.65
2018-11-14T23:18:17.368Z,14.68
2018-11-14T23:20:50.245Z,14.20
2018-11-14T23:23:22.092Z,15.08
2018-11-14T23:25:54.024Z,12.60
2018-11-14T23:28:26.383Z,13.30
2018-11-14T23:30:58.582Z,13.30
2018-11-14T23:33:30.543Z,12.85
2018-11-14T23:36:01.928Z,12.73
2018-11-14T23:38:33.663Z,13.62
2018-11-14T23:41:05.304Z,13.93
2018-11-14T23:43:36.362Z,12.82
2018-11-14T23:46:09.182Z,13.58
2018-11-14T23:48:41.123Z,12.53
2018-11-14T23:51:12.582Z,12.43
2018-11-14T23:53:44.144Z,13.88
2018-11-14T23:56:15.123Z,15.63
2018-11-14T23:58:46.582Z,15.68
